Weather observations for the past three days for
Seminole, Gaines County Airport
Metric (Imperial)
Date Time (cdt) Wind (kph) Vis. (km) Weather Sky Cond. Temperature (ºC) Relative Humidity Wind Chill (°C) Heat Index (°C) Pressure Precipitation (cm)
Air Dwpt 6 hour altimeter (cm) sea level (mb) 1 hr 3 hr 6 hr
Max. Min.
02 09:10 Calm 16.09 Mostly Cloudy BKN110 26.1 14.5 49% 27 76.56 0.0
02 08:50 Calm 16.09 Partly Cloudy SCT110 25.5 14.5 51% 26 76.56 0.0
02 08:30 Calm 16.09 Fair CLR 24.2 14.2 54% 25 76.56 0.0
02 08:15 Calm 16.09 Fair CLR 23.4 14.1 56% 76.53 0.0
02 07:50 Calm 16.09 Fair CLR 22.4 13.7 58% 76.5 0.0
02 07:35 Calm 16.09 Fair CLR 22.3 13.6 58% 76.5 0.0
02 07:10 Calm 16.09 Fair CLR 22.4 13.2 56% 76.5 0.0
02 06:50 Calm 16.09 Fair CLR 22.2 13 27.6 22.2 56% 76.5 0.0
02 06:30 Calm 16.09 Fair CLR 22.7 13 54% 76.5 0.0
02 06:10 Calm 16.09 Fair CLR 23 12.8 53% 76.48 0.0
02 05:55 Calm 16.09 Fair CLR 22.8 13 54% 76.5 0.0
02 05:30 Calm 16.09 Fair CLR 22.9 13 54% 76.5 0.0
02 05:15 Calm 16.09 Fair CLR 23 13 53% 76.5 0.0
02 04:50 Calm 16.09 Fair CLR 23.9 12.7 50% 25 76.5 0.0
02 04:30 Calm 16.09 Fair CLR 24.4 12.6 48% 26 76.5 0.0
02 04:15 Calm 16.09 Fair CLR 24.6 12.5 47% 26 76.5 0.0
02 03:55 Calm 16.09 Fair CLR 25 12.5 46% 26 76.5 0.0
02 03:35 Calm 16.09 Fair CLR 24.8 12.6 47% 26 76.5 0.0
02 03:10 Calm 16.09 Fair CLR 25.1 12.7 46% 26 76.5 0.0
02 02:55 Calm 16.09 Fair CLR 25.6 12.6 45% 26 76.5 0.0
02 02:35 Calm 16.09 Fair CLR 26.5 12.5 42% 27 76.5 0.0
02 02:10 Calm 16.09 Fair CLR 26.6 12.5 42% 27 76.53 0.0
02 01:55 Calm 16.09 Partly Cloudy SCT090 SCT110 26.4 12.6 42% 27 76.5 0.0
02 01:35 Calm 16.09 Mostly Cloudy BKN090 BKN110 27.1 12.5 40% 27 76.5 0.0
02 01:10 Calm 16.09 Mostly Cloudy BKN100 BKN110 27.5 12.2 39% 27 76.5 0.0
02 00:50 SE 6 16.09 Mostly Cloudy BKN110 27.5 12.2 34.5 27.1 39% 27 76.5 0.0
02 00:35 SE 9 16.09 Mostly Cloudy BKN100 27.3 12.2 39% 27 76.5 0.0
02 00:15 SE 6 16.09 Partly Cloudy SCT100 27.1 12.2 40% 27 76.48 0.0
01 23:30 SE 7 16.09 Fair CLR 27.5 12.1 38% 27 76.48 0.0
01 23:15 SE 9 16.09 Fair CLR 27.9 12.1 38% 27 76.48 0.0
01 22:50 SE 9 16.09 Fair CLR 28.5 12.1 36% 28 76.48 0.0
01 22:30 SE 9 16.09 Fair CLR 28.7 12.1 36% 28 76.45 0.0
01 22:15 SE 9 16.09 Fair CLR 28.7 12.3 36% 28 76.43 0.0
01 21:55 SE 11 16.09 Fair CLR 29.2 12.3 35% 28 76.4 0.0
01 21:35 SE 13 16.09 Fair CLR 29.8 12.3 34% 29 76.4 0.0
01 21:15 SE 13 16.09 Fair CLR 30.5 12.2 32% 29 76.38 0.0
01 20:55 SE 15 16.09 Fair CLR 30.7 12.5 33% 30 76.35 0.0
01 20:35 SE 15 16.09 Fair CLR 31.5 12.4 31% 30 76.33 0.0
01 20:15 SE 13 16.09 Fair CLR 32.5 12 29% 31 76.3 0.0
01 19:55 SE 13 16.09 Fair CLR 33 12 28% 32 76.3 0.0
01 19:35 SE 15 16.09 Fair CLR 33.5 12.1 27% 32 76.3 0.0
01 19:15 SE 15 16.09 Partly Cloudy SCT090 34.1 12.1 26% 33 76.28 0.0
01 18:55 SE 17 G 28 16.09 Partly Cloudy SCT090 34.5 12.2 36.5 32.9 26% 33 76.3 0.0
01 18:35 S 11 16.09 Fair CLR 35 12.2 25% 34 76.28 0.0
01 18:15 S 15 16.09 Fair CLR 35.3 12.3 25% 34 76.28 0.0
01 17:55 Calm 16.09 Fair CLR 35.5 12.4 25% 34 76.28 0.0
01 17:35 Calm 16.09 Partly Cloudy SCT110 35.4 12.3 25% 34 76.28 0.0
01 17:15 Calm 16.09 Mostly Cloudy BKN090 35.2 12.2 25% 34 76.3 0.0
01 16:50 Calm 16.09 Mostly Cloudy BKN090 35.4 11.9 24% 34 76.3 0.0
01 16:35 Calm 16.09 Partly Cloudy SCT090 35.2 11.9 24% 34 76.3 0.0
01 16:15 Calm 16.09 Partly Cloudy SCT100 SCT120 36 12 23% 35 76.35 0.0
01 15:55 S 13 16.09 Partly Cloudy SCT120 34.6 12 25% 33 76.38 0.0
01 15:35 Calm 16.09 Partly Cloudy SCT110 33.5 12 27% 32 76.4 0.0
01 15:15 Calm 16.09 Partly Cloudy SCT095 34.6 12.4 26% 33 76.4 0.0
01 14:55 Calm 16.09 Partly Cloudy SCT085 33.9 12.6 27% 33 76.43 0.0
01 14:35 Calm 16.09 Partly Cloudy SCT085 34.9 13.3 27% 34 76.45 0.0
01 14:15 Calm 16.09 Partly Cloudy SCT080 34 13.4 29% 33 76.48 0.0
01 13:55 Calm 16.09 Partly Cloudy SCT070 33.5 13.7 30% 33 76.5 0.0
01 13:35 SE 17 G 26 16.09 Partly Cloudy SCT070 SCT085 33.7 13.9 30% 33 76.5 0.0
01 13:15 SE 17 16.09 Fair CLR 33 14.8 33% 33 76.5 0.0
01 12:55 Calm 16.09 Partly Cloudy SCT060 33.3 15.5 33.3 21 34% 33 76.53 0.0
01 12:35 Calm 16.09 Fair CLR 32.2 16.1 38% 32 76.56 0.0
01 12:15 Calm 16.09 Fair CLR 32.1 16.2 38% 32 76.58 0.0
01 11:55 SE 6 16.09 Fair CLR 31.4 16.1 40% 31 76.58 0.0
01 11:35 Calm 16.09 Fair CLR 31 16.7 42% 31 76.58 0.0
01 11:15 SE 17 G 26 16.09 Fair CLR 30.3 16.6 44% 31 76.58 0.0
01 10:55 S 17 16.09 Fair CLR 29.6 16.5 45% 30 76.58 0.0
01 10:35 S 17 16.09 Fair CLR 28.9 16.7 48% 29 76.58 0.0
01 10:15 S 19 16.09 Fair CLR 28.2 16.7 50% 29 76.58 0.0
01 09:55 Calm 16.09 Fair CLR 27.3 16.9 53% 28 76.58 0.0
01 09:35 Calm 16.09 Fair CLR 26.2 16.8 56% 27 76.61 0.0
01 09:15 Calm 16.09 Fair CLR 25.5 16.6 58% 26 76.61 0.0
01 08:55 Calm 16.09 Fair CLR 24.5 16.1 60% 26 76.61 0.0
01 08:35 Calm 16.09 Fair CLR 22.9 15.8 64% 76.61 0.0
01 08:15 Calm 16.09 Fair CLR 22.2 15.6 66% 76.58 0.0
01 07:55 Calm 16.09 Fair CLR 21.2 15.4 70% 76.58 0.0
01 07:35 Calm 16.09 Fair CLR 21 15.1 69% 76.56 0.0
01 07:15 Calm 16.09 Fair CLR 21 14.8 68% 76.56 0.0
01 06:55 Calm 16.09 Fair CLR 21.2 14.7 25.7 21.1 67% 76.56 0.0
01 06:35 Calm 16.09 Fair CLR 21.1 14.6 67% 76.56 0.0
01 06:15 Calm 16.09 Fair CLR 21.5 14.5 65% 76.53 0.0
01 05:55 Calm 16.09 Fair CLR 21.6 14.1 63% 76.53 0.0
01 05:35 Calm 16.09 Fair CLR 21.5 14 62% 76.53 0.0
01 05:15 Calm 16.09 Fair CLR 22.1 13.8 59% 76.53 0.0
01 04:55 Calm 16.09 Fair CLR 22.5 13.7 58% 76.5 0.0
01 04:35 Calm 16.09 Fair CLR 22.5 13.6 57% 76.5 0.0
01 04:15 Calm 16.09 Fair CLR 22.2 13.3 57% 76.5 0.0
01 03:55 Calm 16.09 Fair CLR 23 13.4 55% 76.5 0.0
01 03:35 Calm 16.09 Fair CLR 23 13.1 54% 76.5 0.0
01 03:15 Calm 16.09 Fair CLR 23.2 13.1 53% 76.5 0.0
01 02:55 Calm 16.09 Fair CLR 23 13 53% 76.5 0.0
01 02:35 Calm 16.09 Fair CLR 22.9 13 54% 76.5 0.0
01 02:15 Calm 16.09 Fair CLR 23.6 12.6 50% 76.48 0.0
01 01:55 Calm 16.09 Fair CLR 24.2 12.6 48% 25 76.48 0.0
01 01:35 Calm 16.09 Fair CLR 24.4 12.5 48% 26 76.48 0.0
01 01:15 Calm 16.09 Fair CLR 24.1 12.3 48% 25 76.48 0.0
01 00:55 Calm 16.09 Fair CLR 25.9 12.5 34 25.3 43% 26 76.48 0.0
01 00:35 Calm 16.09 Fair CLR 25.6 12.3 44% 26 76.45 0.0
01 00:15 Calm 16.09 Fair CLR 25.3 12.2 44% 26 76.48 0.0
31 23:55 Calm 16.09 Fair CLR 26.5 12 41% 27 76.45 0.0
31 23:35 Calm 16.09 Fair CLR 27 12 39% 27 76.45 0.0
31 23:15 Calm 16.09 Fair CLR 26.8 12.1 40% 27 76.45 0.0
31 22:55 Calm 16.09 Fair CLR 27.1 12.1 39% 27 76.45 0.0
31 22:35 Calm 16.09 Fair CLR 27.8 12.1 38% 27 76.45 0.0
31 22:15 SE 7 16.09 Fair CLR 28.4 12.2 37% 28 76.4 0.0
31 21:55 SE 9 16.09 Fair CLR 28.8 12.3 36% 28 76.38 0.0
31 21:35 SE 11 16.09 Fair CLR 29.3 12.5 36% 29 76.35 0.0
31 21:15 SE 11 16.09 Fair CLR 29.6 12.5 35% 29 76.33 0.0
31 20:55 SE 11 16.09 Fair CLR 30.2 12.3 33% 29 76.28 0.0
31 20:35 SE 15 16.09 Fair CLR 31 12.5 32% 30 76.28 0.0
31 20:15 SE 19 16.09 Fair CLR 31.9 12.5 31% 31 76.25 0.0
31 19:55 SE 20 G 26 16.09 Fair CLR 32.6 12.4 29% 31 76.25 0.0
31 19:35 SE 22 G 30 16.09 Fair CLR 33.2 12.6 29% 32 76.25 0.0
31 19:15 SE 22 G 33 16.09 Fair CLR 33.7 12.8 28% 33 76.25 0.0
31 18:35 SE 20 G 33 16.09 Fair CLR 34.5 12.9 27% 33 76.23 0.0
31 18:15 SE 22 16.09 Partly Cloudy SCT085 34.6 13.1 27% 34 76.25 0.0
31 17:55 Calm 16.09 Partly Cloudy SCT085 34.9 12.6 26% 34 76.25 0.0
31 17:35 SE 7 16.09 Partly Cloudy SCT085 34.9 13 27% 34 76.28 0.0
31 17:15 Calm 16.09 Partly Cloudy SCT085 34.9 13.1 27% 34 76.28 0.0
31 16:55 Calm 16.09 Partly Cloudy SCT085 34.7 13.2 27% 34 76.3 0.0
31 16:35 SE 15 G 28 16.09 Partly Cloudy SCT085 34.1 13.1 28% 33 76.33 0.0
31 16:15 SE 11 G 28 16.09 Partly Cloudy SCT075 34.9 13.2 27% 34 76.35 0.0
31 15:55 E 20 G 30 16.09 Partly Cloudy SCT075 34.8 13.5 28% 34 76.35 0.0
31 15:35 Calm 16.09 Partly Cloudy SCT075 SCT085 34.1 13.7 29% 33 76.38 0.0
31 15:15 Calm 16.09 Partly Cloudy SCT075 SCT085 33.5 13.8 30% 33 76.4 0.0
31 14:55 Calm 16.09 Mostly Cloudy SCT075 BKN085 33.2 14.2 32% 33 76.43 0.0
31 14:35 Calm 16.09 Mostly Cloudy SCT075 BKN085 34 14.6 31% 33 76.45 0.0
31 14:15 Calm 16.09 Mostly Cloudy SCT075 BKN085 33 14.6 33% 32 76.48 0.0
31 13:55 Calm 16.09 Partly Cloudy SCT075 33.5 14.3 31% 33 76.48 0.0
31 13:35 Calm 16.09 Partly Cloudy SCT070 SCT075 33.1 15.2 34% 33 76.5 0.0
31 13:15 Calm 16.09 Partly Cloudy SCT060 32.2 15.3 36% 32 76.5 0.0
31 12:55 S 17 G 26 16.09 Partly Cloudy SCT060 32.2 15.6 32.2 21.9 37% 32 76.53 0.0
31 12:35 SE 17 G 30 16.09 Fair CLR 32 16.1 38% 32 76.53 0.0
31 12:15 SE 13 16.09 Fair CLR 31.7 16 39% 32 76.53 0.0
31 11:55 Calm 16.09 Fair CLR 30.8 16.4 42% 31 76.56 0.0
31 11:35 Calm 16.09 Fair CLR 30 17.6 47% 31 76.56 0.0
31 11:15 S 7 16.09 Fair CLR 29.5 18 50% 30 76.56 0.0
31 10:55 S 15 16.09 Fair CLR 28.7 17.9 52% 30 76.56 0.0
31 10:35 SE 9 16.09 Fair CLR 28.5 18.1 53% 29 76.53 0.0
31 10:15 Calm 16.09 Fair CLR 27.6 18.1 56% 29 76.56 0.0
31 09:55 Calm 16.09 Fair CLR 27 18.2 59% 28 76.53 0.0
31 09:35 Calm 16.09 Fair CLR 26.1 18.1 61% 27 76.56 0.0
31 09:15 Calm 16.09 Fair CLR 25.5 18 63% 26 76.56 0.0
31 08:55 Calm 16.09 Fair CLR 24.8 17.4 64% 26 76.53 0.0
31 08:35 Calm 16.09 Fair CLR 24 16.9 65% 25 76.5 0.0
31 08:15 Calm 16.09 Fair CLR 23 16.1 65% 76.5 0.0
31 07:55 Calm 16.09 Fair CLR 22.5 15.6 65% 76.48 0.0
31 07:35 Calm 16.09 Fair CLR 22.1 15.1 65% 76.45 0.0
31 07:15 Calm 16.09 Fair CLR 22 14.7 63% 76.45 0.0
31 06:55 Calm 16.09 Fair CLR 21.9 14.5 26.4 21.5 63% 76.45 0.0
31 06:35 Calm 16.09 Fair CLR 21.6 14.3 63% 76.45 0.0
31 06:15 Calm 16.09 Fair CLR 22.2 14.5 62% 76.45 0.0
31 05:55 Calm 16.09 Fair CLR 22.9 14.5 59% 76.45 0.0
31 05:35 Calm 16.09 Fair CLR 22.6 14.5 60% 76.45 0.0
31 05:15 Calm 16.09 Fair CLR 23 14.5 59% 76.45 0.0
31 04:55 Calm 16.09 Fair CLR 23 14.4 59% 76.43 0.0
31 04:35 Calm 16.09 Fair CLR 23.3 14.3 57% 76.43 0.0
31 04:15 Calm 16.09 Fair CLR 23.8 14.5 56% 76.4 0.0
31 03:55 Calm 16.09 Fair CLR 24.1 14.2 54% 25 76.4 0.0
31 03:35 Calm 16.09 Fair CLR 24.1 14 53% 25 76.4 0.0
31 03:15 Calm 16.09 Fair CLR 24.1 13.7 52% 25 76.4 0.0
31 02:55 Calm 16.09 Fair CLR 24.3 13.7 52% 26 76.4 0.0
31 02:35 Calm 16.09 Fair CLR 25 13.9 50% 26 76.4 0.0
31 02:15 Calm 16.09 Fair CLR 25.6 13.7 48% 26 76.4 0.0
31 01:55 Calm 16.09 Fair CLR 25.7 13.6 47% 26 76.4 0.0
31 01:35 Calm 16.09 Fair CLR 25.8 13.1 45% 26 76.4 0.0
31 01:15 Calm 16.09 Fair CLR 26.3 13 44% 27 76.4 0.0
31 00:55 Calm 16.09 Fair CLR 26.3 12.6 35.5 26.3 43% 26 76.4 0.0
31 00:35 Calm 16.09 Fair CLR 26.6 12.6 42% 27 76.38 0.0
31 00:15 Calm 16.09 Fair CLR 26.9 12.5 41% 27 76.4 0.0
30 23:55 Calm 16.09 Fair CLR 27 12.5 41% 27 76.38 0.0
30 23:35 Calm 16.09 Fair CLR 27 12.5 41% 27 76.38 0.0
30 23:15 Calm 16.09 Fair CLR 27.5 12.5 39% 27 76.38 0.0
30 22:55 Calm 16.09 Fair CLR 27.8 12.5 39% 27 76.35 0.0
30 22:35 Calm 16.09 Fair CLR 28.5 12.3 37% 28 76.35 0.0
30 22:15 Calm 16.09 Fair CLR 29 12.3 36% 28 76.35 0.0
30 21:55 Calm 16.09 Fair CLR 29.2 12.5 36% 28 76.33 0.0
30 21:35 Calm 16.09 Fair CLR 29.9 12.4 34% 29 76.3 0.0
30 21:15 Calm 16.09 Fair CLR 31 12.1 31% 30 76.28 0.0
30 20:55 Calm 16.09 Fair CLR 31.5 12.4 31% 30 76.28 0.0
30 20:35 Calm 16.09 Fair CLR 32.2 12.2 29% 31 76.25 0.0
30 20:15 Calm 16.09 Fair CLR 32.9 12 28% 32 76.23 0.0
30 19:55 Calm 16.09 Fair CLR 34.1 11.7 26% 33 76.23 0.0
30 19:35 Calm 16.09 Fair CLR 34.7 11.6 24% 33 76.23 0.0
30 19:15 Calm 16.09 Fair CLR 35.2 12.1 25% 34 76.23 0.0
30 18:55 Calm 16.09 Fair CLR 35.5 12.2 36.5 33.3 24% 34 76.23 0.0
30 18:35 Calm 16.09 Fair CLR 35.9 11.5 23% 34 76.23 0.0
30 18:15 SE 19 16.09 Fair CLR 36.3 11.9 23% 35 76.23 0.0
30 17:55 S 15 G 26 16.09 Fair CLR 36.1 12.1 23% 35 76.23 0.0
30 17:35 Calm 16.09 Fair CLR 35.9 12.1 24% 35 76.2 0.0
30 17:15 Calm 16.09 Fair CLR 36 11.9 23% 35 76.23 0.0
30 16:55 Calm 16.09 Fair CLR 36.4 11.6 22% 35 76.25 0.0
30 16:35 Calm 16.09 Fair CLR 36.1 12.7 24% 35 76.25 0.0
30 16:15 Calm 16.09 Fair CLR 35.9 12.7 25% 35 76.28 0.0
30 15:55 Calm 16.09 Fair CLR 35.7 13.1 26% 35 76.3 0.0
30 15:35 Calm 16.09 Fair CLR 36.2 13.3 25% 35 76.33 0.0
30 15:15 Calm 16.09 Fair CLR 35.7 13.1 26% 35 76.35 0.0
30 14:55 Calm 16.09 Fair CLR 35 13.4 27% 34 76.38 0.0
30 14:35 Calm 16.09 Fair CLR 34.6 13.1 27% 34 76.38 0.0
30 14:15 Calm 16.09 Fair CLR 34.7 13.9 29% 34 76.4 0.0
30 13:55 Calm 16.09 Fair CLR 34.2 13.2 28% 33 76.43 0.0
30 13:35 Calm 16.09 Fair CLR 34 12.8 28% 33 76.43 0.0
30 13:15 Calm 16.09 Fair CLR 33.6 14 31% 33 76.48 0.0
30 12:55 Calm 16.09 Fair CLR 33.2 14 33.2 23 31% 32 76.5 0.0
30 12:35 Calm 16.09 Fair CLR 33 14.6 33% 32 76.5 0.0
30 12:15 Calm 16.09 Fair CLR 32.5 15.8 37% 32 76.5 0.0
30 11:55 Calm 16.09 Fair CLR 31.9 16 38% 32 76.53 0.0
30 11:35 Calm 16.09 Fair CLR 31.5 16.3 40% 32 76.56 0.0
30 11:15 S 11 16.09 Fair CLR 30.5 16 42% 30 76.56 0.0
30 10:55 Calm 16.09 Fair CLR 30 16.4 44% 30 76.56 0.0
30 10:35 Calm 16.09 Fair CLR 29.1 16.2 46% 29 76.56 0.0
30 10:15 Calm 16.09 Fair CLR 28.6 16.3 47% 29 76.56 0.0
30 09:55 Calm 16.09 Fair CLR 28 16.2 49% 28 76.58 0.0
30 09:35 Calm 16.09 Fair CLR 27 16.3 52% 28 76.56 0.0
Date Time (cdt) Wind (kph) Vis. (km) Weather Sky Cond. Air Dwpt Max. Min. Relative Humidity Wind Chill (°C) Heat Index (°C) altimeter (cm) sea level (mb) 1 hr 3 hr 6 hr
6 hour
Temperature (ºC) Pressure Precipitation (cm)